Time;durP1;ratioP1;P1;durP2;ratioP2;P2;SDS_P1;SDS_P2;PMS_P1;PMS_P2;Temp;Humidity;BMP_temperature;BMP_pressure;BME280_temperature;BME280_humidity;BME280_pressure;Samples;Min_cycle;Max_cycle;Signal;HPM_P1;HPM_P2
2024/05/06 00:01:48;;;;;;;7.95;5.00;;;;;;;;;;5295562;26;19998;-60
2024/05/06 00:04:13;;;;;;;5.60;4.55;;;;;;;;;;5295798;26;19998;-60
2024/05/06 00:06:41;;;;;;;6.80;4.80;;;;;;;;;;5299077;26;20005;-60
2024/05/06 00:09:07;;;;;;;6.43;4.80;;;;;;;;;;5305774;26;20008;-60
2024/05/06 00:11:32;;;;;;;8.27;5.18;;;;;;;;;;5328308;26;20000;-60
2024/05/06 00:13:58;;;;;;;8.15;4.78;;;;;;;;;;5301060;27;20473;-60
2024/05/06 00:16:23;;;;;;;7.13;4.88;;;;;;;;;;5326304;26;20492;-61
2024/05/06 00:18:48;;;;;;;7.07;5.03;;;;;;;;;;5313687;26;19998;-60
2024/05/06 00:21:14;;;;;;;7.00;5.10;;;;;;;;;;5300208;26;21001;-60
2024/05/06 00:23:39;;;;;;;9.75;4.93;;;;;;;;;;5299917;26;20332;-60
2024/05/06 00:26:04;;;;;;;7.65;4.78;;;;;;;;;;5300630;26;19998;-60
2024/05/06 00:28:30;;;;;;;11.15;5.88;;;;;;;;;;5298459;26;20016;-60
2024/05/06 00:30:55;;;;;;;6.55;4.50;;;;;;;;;;5302839;26;20073;-60
2024/05/06 00:33:20;;;;;;;8.43;5.07;;;;;;;;;;5297223;26;20787;-60
2024/05/06 00:35:46;;;;;;;7.63;4.97;;;;;;;;;;5271836;26;20034;-60
2024/05/06 00:38:11;;;;;;;6.22;4.45;;;;;;;;;;5298952;27;20343;-60
2024/05/06 00:40:36;;;;;;;7.05;4.93;;;;;;;;;;5330929;26;20335;-60
2024/05/06 00:43:02;;;;;;;8.07;4.70;;;;;;;;;;5311046;26;20001;-60
2024/05/06 00:45:28;;;;;;;6.43;4.80;;;;;;;;;;5299778;26;20017;-60
2024/05/06 00:47:57;;;;;;;6.78;4.70;;;;;;;;;;5305067;26;20039;-60
2024/05/06 00:50:23;;;;;;;6.45;4.75;;;;;;;;;;5299501;26;20001;-60
2024/05/06 00:52:49;;;;;;;6.95;5.25;;;;;;;;;;5297190;27;20335;-60
2024/05/06 00:55:15;;;;;;;6.80;5.00;;;;;;;;;;5300119;26;20002;-60
2024/05/06 00:57:41;;;;;;;6.88;4.65;;;;;;;;;;5299693;26;20887;-60
2024/05/06 01:00:07;;;;;;;7.20;5.00;;;;;;;;;;5299376;26;19998;-60
2024/05/06 01:02:34;;;;;;;6.47;4.75;;;;;;;;;;5299400;26;20336;-60
2024/05/06 01:04:59;;;;;;;7.07;5.30;;;;;;;;;;5300195;26;20068;-60
2024/05/06 01:07:25;;;;;;;7.13;4.85;;;;;;;;;;5298556;26;20013;-60
2024/05/06 01:09:50;;;;;;;7.35;4.78;;;;;;;;;;5299847;26;20005;-60
2024/05/06 01:12:17;;;;;;;7.20;5.03;;;;;;;;;;5299208;26;20016;-60
2024/05/06 01:14:42;;;;;;;6.55;4.63;;;;;;;;;;5299244;26;20017;-60
2024/05/06 01:17:08;;;;;;;5.60;4.30;;;;;;;;;;5299433;26;20004;-60
2024/05/06 01:19:33;;;;;;;6.22;4.45;;;;;;;;;;5314022;26;20004;-60
2024/05/06 01:22:02;;;;;;;5.57;4.30;;;;;;;;;;5333280;26;19993;-60
2024/05/06 01:24:28;;;;;;;5.88;4.60;;;;;;;;;;5318671;26;20013;-60
2024/05/06 01:26:54;;;;;;;6.43;5.00;;;;;;;;;;5298280;26;20016;-60
2024/05/06 01:29:20;;;;;;;7.07;4.40;;;;;;;;;;5299556;26;19998;-60
2024/05/06 01:31:45;;;;;;;6.30;4.63;;;;;;;;;;5299495;26;20001;-60
2024/05/06 01:34:11;;;;;;;5.97;4.40;;;;;;;;;;5298075;26;19997;-60
2024/05/06 01:36:36;;;;;;;6.50;4.43;;;;;;;;;;5298685;26;20081;-60
2024/05/06 01:39:01;;;;;;;5.32;4.45;;;;;;;;;;5298632;26;20004;-60
2024/05/06 01:41:27;;;;;;;6.93;4.63;;;;;;;;;;5297571;26;19998;-60
2024/05/06 01:43:52;;;;;;;7.45;4.47;;;;;;;;;;5299507;27;20016;-60
2024/05/06 01:46:17;;;;;;;4.40;3.50;;;;;;;;;;5298023;26;20002;-60
2024/05/06 01:48:43;;;;;;;5.68;4.25;;;;;;;;;;5299171;26;19997;-60
2024/05/06 01:51:08;;;;;;;5.80;4.45;;;;;;;;;;5298107;26;19998;-60
2024/05/06 01:53:36;;;;;;;7.18;3.80;;;;;;;;;;5298484;26;20002;-60
2024/05/06 01:56:01;;;;;;;5.97;4.53;;;;;;;;;;5298994;26;19998;-60
2024/05/06 01:58:26;;;;;;;5.13;4.13;;;;;;;;;;5298684;26;20029;-60
2024/05/06 02:00:52;;;;;;;6.80;4.00;;;;;;;;;;5298588;26;20452;-60
2024/05/06 02:03:17;;;;;;;5.65;4.20;;;;;;;;;;5298486;26;20108;-60
2024/05/06 02:05:42;;;;;;;6.13;4.43;;;;;;;;;;5298316;26;20001;-60
2024/05/06 02:08:08;;;;;;;8.32;4.97;;;;;;;;;;5296602;27;19998;-60
2024/05/06 02:10:33;;;;;;;7.22;5.22;;;;;;;;;;5298960;26;20016;-60
2024/05/06 02:12:58;;;;;;;7.15;4.72;;;;;;;;;;5296095;26;20095;-61
2024/05/06 02:15:24;;;;;;;7.70;4.40;;;;;;;;;;5298849;26;20013;-60
2024/05/06 02:17:49;;;;;;;6.88;4.50;;;;;;;;;;5297154;26;19998;-60
2024/05/06 02:20:14;;;;;;;7.00;4.72;;;;;;;;;;5299117;26;20076;-60
2024/05/06 02:22:40;;;;;;;6.70;4.70;;;;;;;;;;5298926;26;20018;-60
2024/05/06 02:25:05;;;;;;;8.52;4.80;;;;;;;;;;5297525;26;20558;-60
2024/05/06 02:27:30;;;;;;;8.27;4.72;;;;;;;;;;5297407;26;20033;-60
2024/05/06 02:29:56;;;;;;;8.40;5.20;;;;;;;;;;5298324;26;20001;-60
2024/05/06 02:32:22;;;;;;;5.90;4.80;;;;;;;;;;5298643;26;20045;-60
2024/05/06 02:34:47;;;;;;;6.65;4.72;;;;;;;;;;5334472;26;20436;-60
2024/05/06 02:37:12;;;;;;;8.45;5.03;;;;;;;;;;5332245;26;20355;-61
2024/05/06 02:39:38;;;;;;;11.68;5.30;;;;;;;;;;5330693;26;19997;-60
2024/05/06 02:42:05;;;;;;;6.38;4.75;;;;;;;;;;5332459;26;20312;-60
2024/05/06 02:44:30;;;;;;;9.07;4.88;;;;;;;;;;5332133;26;20011;-60
2024/05/06 02:46:55;;;;;;;7.30;5.05;;;;;;;;;;5327901;26;20786;-60
2024/05/06 02:49:21;;;;;;;10.02;5.47;;;;;;;;;;5329152;26;20012;-60
2024/05/06 02:51:46;;;;;;;7.60;5.40;;;;;;;;;;5332393;26;20025;-60
2024/05/06 02:54:11;;;;;;;8.98;6.03;;;;;;;;;;5331258;26;20015;-60
2024/05/06 02:56:37;;;;;;;8.60;5.80;;;;;;;;;;5332680;26;20000;-60
2024/05/06 02:59:03;;;;;;;8.77;6.07;;;;;;;;;;5316495;26;20008;-60
2024/05/06 03:01:28;;;;;;;11.07;5.40;;;;;;;;;;5331511;26;20017;-60
2024/05/06 03:03:54;;;;;;;7.30;5.00;;;;;;;;;;5316194;26;19993;-60
2024/05/06 03:06:19;;;;;;;7.50;5.20;;;;;;;;;;5331547;26;20005;-60
2024/05/06 03:08:44;;;;;;;5.90;4.28;;;;;;;;;;5303490;26;20012;-60
2024/05/06 03:11:10;;;;;;;7.32;5.18;;;;;;;;;;5333054;26;20048;-61
2024/05/06 03:13:35;;;;;;;7.05;5.40;;;;;;;;;;5324493;26;20014;-60
2024/05/06 03:16:01;;;;;;;8.45;5.25;;;;;;;;;;5331745;26;20009;-60
2024/05/06 03:18:26;;;;;;;7.53;4.65;;;;;;;;;;5330577;26;20015;-60
2024/05/06 03:20:52;;;;;;;6.28;4.80;;;;;;;;;;5332127;26;20020;-60
2024/05/06 03:23:17;;;;;;;8.25;5.03;;;;;;;;;;5331626;26;20386;-60
2024/05/06 03:25:42;;;;;;;7.40;4.75;;;;;;;;;;5331742;26;20033;-60
2024/05/06 03:28:08;;;;;;;8.00;4.30;;;;;;;;;;5331590;26;20038;-60
2024/05/06 03:30:33;;;;;;;6.93;5.15;;;;;;;;;;5331376;26;20557;-60
2024/05/06 03:32:58;;;;;;;8.60;4.93;;;;;;;;;;5331335;26;19993;-60
2024/05/06 03:35:24;;;;;;;6.47;5.00;;;;;;;;;;5330244;26;19997;-60
2024/05/06 03:37:49;;;;;;;6.30;4.63;;;;;;;;;;5332003;26;20012;-60
2024/05/06 03:40:15;;;;;;;6.30;4.85;;;;;;;;;;5332575;26;20001;-60
2024/05/06 03:42:40;;;;;;;8.18;4.80;;;;;;;;;;5334479;26;20100;-60
2024/05/06 03:45:06;;;;;;;8.63;4.60;;;;;;;;;;5334294;26;20004;-60
2024/05/06 03:47:31;;;;;;;6.45;4.50;;;;;;;;;;5334074;26;20008;-60
2024/05/06 03:49:56;;;;;;;7.68;5.38;;;;;;;;;;5335093;26;20024;-61
2024/05/06 03:52:23;;;;;;;6.60;4.82;;;;;;;;;;5335195;26;20001;-60
2024/05/06 03:54:48;;;;;;;6.30;4.63;;;;;;;;;;5319165;26;20024;-60
2024/05/06 03:57:13;;;;;;;7.05;4.72;;;;;;;;;;5334776;26;20907;-60
2024/05/06 03:59:46;;;;;;;7.07;4.45;;;;;;;;;;5334537;26;20021;-60
2024/05/06 04:02:11;;;;;;;6.05;4.70;;;;;;;;;;5335167;26;20020;-60
2024/05/06 04:04:37;;;;;;;7.10;5.00;;;;;;;;;;5334623;26;20581;-60
2024/05/06 04:07:03;;;;;;;8.02;5.43;;;;;;;;;;5334707;26;20095;-60
2024/05/06 04:09:28;;;;;;;7.60;5.28;;;;;;;;;;5333471;26;19993;-60
2024/05/06 04:11:53;;;;;;;8.60;5.65;;;;;;;;;;5334505;26;20013;-60
2024/05/06 04:14:19;;;;;;;8.20;5.65;;;;;;;;;;5334113;26;20175;-60
2024/05/06 04:16:44;;;;;;;9.27;6.25;;;;;;;;;;5335159;26;21336;-60
2024/05/06 04:19:09;;;;;;;9.88;5.50;;;;;;;;;;5334444;26;20012;-60
2024/05/06 04:21:35;;;;;;;9.70;6.07;;;;;;;;;;5333518;26;20068;-60
2024/05/06 04:27:29;;;;;;;9.25;5.53;;;;;;;;;;5333585;26;20008;-60
2024/05/06 04:29:30;;;;;;;8.98;6.05;;;;;;;;;;5310613;26;20009;-60
2024/05/06 04:31:55;;;;;;;6.63;5.15;;;;;;;;;;5334315;26;20020;-60
2024/05/06 04:34:20;;;;;;;8.85;6.47;;;;;;;;;;5333557;26;20012;-60
2024/05/06 04:36:46;;;;;;;8.63;5.43;;;;;;;;;;5334627;26;19997;-60
2024/05/06 04:39:11;;;;;;;9.32;6.40;;;;;;;;;;5307675;26;21146;-61
2024/05/06 04:41:36;;;;;;;8.23;6.00;;;;;;;;;;5333255;26;20016;-60
2024/05/06 04:44:02;;;;;;;8.57;6.03;;;;;;;;;;5334399;26;19997;-60
2024/05/06 04:46:27;;;;;;;10.82;6.25;;;;;;;;;;5333604;26;20012;-60
2024/05/06 04:48:53;;;;;;;10.70;6.47;;;;;;;;;;5319675;26;20067;-60
2024/05/06 04:51:18;;;;;;;10.13;6.70;;;;;;;;;;5332557;26;20782;-60
2024/05/06 04:53:43;;;;;;;11.35;6.95;;;;;;;;;;5333407;26;21011;-60
2024/05/06 04:56:09;;;;;;;10.13;6.30;;;;;;;;;;5334956;26;20775;-60
2024/05/06 04:58:34;;;;;;;11.95;6.93;;;;;;;;;;5334317;26;20001;-60
2024/05/06 05:01:00;;;;;;;10.13;6.53;;;;;;;;;;5332297;26;19997;-60
2024/05/06 05:03:25;;;;;;;9.82;6.55;;;;;;;;;;5333619;26;20435;-60
2024/05/06 05:05:51;;;;;;;10.85;6.95;;;;;;;;;;5333676;26;20073;-60
2024/05/06 05:08:17;;;;;;;8.98;6.47;;;;;;;;;;5318158;26;19997;-60
2024/05/06 05:10:42;;;;;;;11.35;6.70;;;;;;;;;;5317285;26;20008;-60
2024/05/06 05:13:07;;;;;;;13.00;6.47;;;;;;;;;;5333558;26;20004;-60
2024/05/06 05:15:33;;;;;;;10.52;6.43;;;;;;;;;;5316646;26;20005;-60
2024/05/06 05:17:58;;;;;;;9.45;6.60;;;;;;;;;;5333008;26;19993;-60
2024/05/06 05:20:24;;;;;;;15.00;7.35;;;;;;;;;;5332501;26;20136;-61
2024/05/06 05:22:49;;;;;;;11.32;7.45;;;;;;;;;;5334124;26;20082;-60
2024/05/06 05:25:15;;;;;;;11.98;7.20;;;;;;;;;;5332822;26;20064;-61
2024/05/06 05:27:40;;;;;;;11.30;7.50;;;;;;;;;;5331231;26;20962;-61
2024/05/06 05:30:06;;;;;;;11.52;7.30;;;;;;;;;;5331979;26;19996;-60
2024/05/06 05:32:31;;;;;;;11.73;7.25;;;;;;;;;;5329907;26;20813;-60
2024/05/06 05:34:58;;;;;;;10.80;7.43;;;;;;;;;;5299388;26;19997;-60
2024/05/06 05:37:26;;;;;;;12.73;8.32;;;;;;;;;;5297984;26;20467;-60
2024/05/06 05:39:51;;;;;;;11.50;8.07;;;;;;;;;;5297757;26;20044;-60
2024/05/06 05:42:17;;;;;;;12.82;8.15;;;;;;;;;;5298577;26;19997;-60
2024/05/06 05:44:43;;;;;;;11.18;7.90;;;;;;;;;;5296821;26;20008;-60
2024/05/06 05:47:08;;;;;;;12.18;7.60;;;;;;;;;;5338374;26;20005;-60
2024/05/06 05:49:33;;;;;;;14.77;8.85;;;;;;;;;;5332977;26;20013;-60
2024/05/06 05:51:59;;;;;;;14.25;8.45;;;;;;;;;;5309382;26;20068;-60
2024/05/06 05:54:24;;;;;;;13.30;8.45;;;;;;;;;;5299211;26;20008;-60
2024/05/06 05:56:50;;;;;;;17.45;8.68;;;;;;;;;;5298319;26;20327;-60
2024/05/06 05:59:15;;;;;;;14.05;8.45;;;;;;;;;;5298929;26;20026;-60
2024/05/06 06:01:44;;;;;;;16.58;8.52;;;;;;;;;;5298019;26;20538;-60
2024/05/06 06:04:13;;;;;;;15.98;8.55;;;;;;;;;;5297942;26;20076;-60
2024/05/06 06:06:39;;;;;;;18.13;9.07;;;;;;;;;;5325972;26;20533;-60
2024/05/06 06:09:05;;;;;;;16.13;10.07;;;;;;;;;;5322741;26;20006;-60
2024/05/06 06:11:31;;;;;;;18.60;8.65;;;;;;;;;;5298278;26;20032;-60
2024/05/06 06:13:56;;;;;;;22.45;8.50;;;;;;;;;;5299011;27;20559;-60
2024/05/06 06:16:21;;;;;;;16.02;9.20;;;;;;;;;;5299200;26;20091;-60
2024/05/06 06:18:47;;;;;;;26.25;8.40;;;;;;;;;;5296935;26;19997;-60
2024/05/06 06:21:12;;;;;;;23.85;8.82;;;;;;;;;;5299118;26;20064;-60
2024/05/06 06:23:37;;;;;;;18.58;8.50;;;;;;;;;;5296045;26;20002;-60
2024/05/06 06:26:03;;;;;;;28.45;8.70;;;;;;;;;;5301556;26;20006;-60
2024/05/06 06:28:28;;;;;;;21.20;8.93;;;;;;;;;;5297625;26;20006;-60
2024/05/06 06:30:54;;;;;;;23.20;9.23;;;;;;;;;;5297120;26;20579;-60
2024/05/06 06:33:20;;;;;;;16.50;9.10;;;;;;;;;;5292428;26;19997;-60
2024/05/06 06:35:45;;;;;;;34.83;9.25;;;;;;;;;;5297872;26;20009;-60
2024/05/06 06:38:10;;;;;;;19.80;8.77;;;;;;;;;;5332038;26;20201;-60
2024/05/06 06:40:36;;;;;;;30.95;9.75;;;;;;;;;;5287668;26;20000;-60
2024/05/06 06:43:03;;;;;;;20.00;8.32;;;;;;;;;;5311977;26;20016;-60
2024/05/06 06:45:28;;;;;;;18.60;8.88;;;;;;;;;;5312561;26;20001;-60
2024/05/06 06:47:55;;;;;;;16.27;8.00;;;;;;;;;;5293974;26;20072;-60
2024/05/06 06:50:20;;;;;;;12.00;7.25;;;;;;;;;;5281893;27;20002;-60
2024/05/06 06:52:46;;;;;;;11.05;7.25;;;;;;;;;;5293624;26;20030;-60
2024/05/06 06:55:11;;;;;;;9.45;6.72;;;;;;;;;;5297743;26;20012;-60
2024/05/06 06:57:37;;;;;;;12.18;7.07;;;;;;;;;;5294789;26;19998;-60
2024/05/06 07:00:02;;;;;;;10.05;6.90;;;;;;;;;;5297897;26;19998;-60
2024/05/06 07:02:28;;;;;;;9.27;6.80;;;;;;;;;;5296209;26;20018;-60
2024/05/06 07:04:53;;;;;;;10.95;7.30;;;;;;;;;;5298337;26;19998;-60
2024/05/06 07:07:18;;;;;;;13.95;7.07;;;;;;;;;;5296873;26;20327;-60
2024/05/06 07:09:44;;;;;;;10.32;6.57;;;;;;;;;;5297652;26;19994;-60
2024/05/06 07:12:10;;;;;;;12.23;7.20;;;;;;;;;;5310306;26;20029;-60
2024/05/06 07:14:36;;;;;;;9.68;6.60;;;;;;;;;;5326247;26;19997;-60
2024/05/06 07:17:01;;;;;;;9.43;6.63;;;;;;;;;;5295533;27;19997;-61
2024/05/06 07:19:26;;;;;;;9.48;6.68;;;;;;;;;;5297584;26;20013;-60
2024/05/06 07:21:52;;;;;;;10.65;6.90;;;;;;;;;;5317659;26;20012;-60
2024/05/06 07:24:17;;;;;;;12.43;7.28;;;;;;;;;;5312018;26;20462;-60
2024/05/06 07:26:43;;;;;;;11.77;7.40;;;;;;;;;;5322890;26;20331;-60
2024/05/06 07:29:08;;;;;;;10.20;6.07;;;;;;;;;;5330420;26;19997;-60
2024/05/06 07:31:34;;;;;;;9.05;6.25;;;;;;;;;;5326956;26;20088;-60
2024/05/06 07:33:59;;;;;;;10.68;6.95;;;;;;;;;;5325235;26;20051;-60
2024/05/06 07:36:24;;;;;;;12.07;6.88;;;;;;;;;;5311154;26;20005;-60
2024/05/06 07:38:50;;;;;;;12.43;6.55;;;;;;;;;;5310958;26;20004;-60
2024/05/06 07:41:15;;;;;;;10.88;7.00;;;;;;;;;;5328757;26;20052;-60
2024/05/06 07:43:40;;;;;;;11.60;7.13;;;;;;;;;;5323618;26;20001;-61
2024/05/06 07:46:09;;;;;;;9.18;6.47;;;;;;;;;;5302329;26;20009;-61
2024/05/06 07:48:35;;;;;;;9.10;6.45;;;;;;;;;;5296689;26;19997;-60
2024/05/06 07:51:00;;;;;;;9.45;6.45;;;;;;;;;;5305787;26;20079;-61
2024/05/06 07:53:26;;;;;;;8.70;6.05;;;;;;;;;;5329502;26;20012;-61
2024/05/06 07:55:51;;;;;;;10.93;6.20;;;;;;;;;;5294551;26;19997;-61
2024/05/06 07:58:17;;;;;;;7.85;5.63;;;;;;;;;;5332493;26;20012;-61
2024/05/06 08:00:42;;;;;;;8.25;5.78;;;;;;;;;;5315835;26;20319;-61
2024/05/06 08:03:09;;;;;;;7.72;5.10;;;;;;;;;;5305761;26;20009;-61
2024/05/06 08:05:35;;;;;;;7.65;4.72;;;;;;;;;;5294465;26;20576;-61
2024/05/06 08:08:01;;;;;;;8.55;5.55;;;;;;;;;;5288885;26;20019;-61
2024/05/06 08:10:26;;;;;;;7.82;4.28;;;;;;;;;;5321974;26;20054;-61
2024/05/06 08:12:51;;;;;;;6.93;3.95;;;;;;;;;;5302663;26;19997;-61
2024/05/06 08:15:17;;;;;;;7.50;4.18;;;;;;;;;;5296828;26;20014;-61
2024/05/06 08:17:43;;;;;;;8.43;4.40;;;;;;;;;;5289214;26;20032;-61
2024/05/06 08:20:09;;;;;;;5.20;3.20;;;;;;;;;;5294635;26;20005;-60
2024/05/06 08:22:34;;;;;;;3.88;2.35;;;;;;;;;;5297861;26;20064;-61
2024/05/06 08:24:59;;;;;;;4.43;2.78;;;;;;;;;;5296895;26;19994;-61
2024/05/06 08:27:25;;;;;;;4.57;2.75;;;;;;;;;;5297368;26;20021;-60
2024/05/06 08:29:51;;;;;;;4.38;3.03;;;;;;;;;;5299310;26;20004;-60
2024/05/06 08:32:17;;;;;;;4.88;3.10;;;;;;;;;;5298884;26;21071;-61
2024/05/06 08:34:43;;;;;;;5.93;3.22;;;;;;;;;;5299317;26;20006;-61
2024/05/06 08:37:08;;;;;;;5.28;3.03;;;;;;;;;;5298945;26;20459;-60
2024/05/06 08:39:33;;;;;;;4.43;2.80;;;;;;;;;;5297064;26;20002;-61
2024/05/06 08:41:59;;;;;;;3.92;2.92;;;;;;;;;;5293864;26;20020;-61
2024/05/06 08:44:29;;;;;;;5.03;2.92;;;;;;;;;;5297759;26;19997;-61
2024/05/06 08:47:01;;;;;;;4.22;2.97;;;;;;;;;;5298020;26;20016;-61
2024/05/06 08:49:31;;;;;;;4.05;2.90;;;;;;;;;;5298712;26;20016;-61
2024/05/06 08:52:00;;;;;;;6.18;3.33;;;;;;;;;;5297963;26;19994;-60
2024/05/06 08:54:28;;;;;;;6.70;3.30;;;;;;;;;;5298607;26;19994;-61
2024/05/06 08:56:54;;;;;;;3.72;3.10;;;;;;;;;;5294617;26;20000;-61
2024/05/06 08:59:24;;;;;;;4.60;3.10;;;;;;;;;;5324870;26;20456;-61
2024/05/06 09:01:50;;;;;;;4.97;3.38;;;;;;;;;;5332657;26;20016;-61
2024/05/06 09:04:15;;;;;;;4.32;3.03;;;;;;;;;;5299678;26;20006;-61
2024/05/06 09:06:44;;;;;;;4.80;3.00;;;;;;;;;;5305307;26;20000;-61
2024/05/06 09:09:11;;;;;;;6.70;3.35;;;;;;;;;;5319177;26;20009;-61
2024/05/06 09:11:37;;;;;;;4.97;3.40;;;;;;;;;;5286525;26;20038;-61
2024/05/06 09:14:06;;;;;;;5.43;3.13;;;;;;;;;;5292940;26;20001;-60
2024/05/06 09:16:46;;;;;;;5.18;3.17;;;;;;;;;;5297889;26;20002;-61
2024/05/06 09:19:11;;;;;;;6.15;3.30;;;;;;;;;;5317582;26;20929;-61
2024/05/06 09:21:37;;;;;;;4.63;2.90;;;;;;;;;;5330608;26;20001;-61
2024/05/06 09:24:02;;;;;;;3.70;2.85;;;;;;;;;;5319502;26;20012;-62
2024/05/06 09:26:30;;;;;;;6.63;3.42;;;;;;;;;;5324447;26;20013;-60
2024/05/06 09:28:56;;;;;;;5.97;3.28;;;;;;;;;;5293617;26;20005;-61
2024/05/06 09:31:24;;;;;;;3.80;3.08;;;;;;;;;;5297535;26;20024;-61
2024/05/06 09:33:55;;;;;;;4.47;3.42;;;;;;;;;;5298346;26;20350;-60
2024/05/06 09:36:24;;;;;;;4.00;3.20;;;;;;;;;;5298067;26;20053;-61
2024/05/06 09:38:57;;;;;;;7.07;3.30;;;;;;;;;;5303791;26;20016;-61
2024/05/06 09:41:31;;;;;;;4.65;3.10;;;;;;;;;;5319581;26;20001;-61
2024/05/06 09:43:56;;;;;;;;;;;;;;;;;;5298549;26;20029;-61
2024/05/06 09:46:24;;;;;;;4.57;3.15;;;;;;;;;;5298210;26;19926;-60
2024/05/06 09:48:50;;;;;;;4.57;3.17;;;;;;;;;;5298707;26;20009;-60
2024/05/06 09:51:16;;;;;;;4.47;3.00;;;;;;;;;;5298201;26;20091;-61
2024/05/06 09:53:41;;;;;;;4.03;3.08;;;;;;;;;;5297761;26;20453;-61
2024/05/06 09:56:08;;;;;;;4.13;3.00;;;;;;;;;;5298489;26;19998;-60
2024/05/06 09:58:34;;;;;;;7.28;3.28;;;;;;;;;;5327442;26;19997;-61
2024/05/06 10:01:04;;;;;;;6.00;3.50;;;;;;;;;;5300209;26;20009;-60
2024/05/06 10:03:30;;;;;;;4.78;3.20;;;;;;;;;;5297827;26;19996;-61
2024/05/06 10:05:56;;;;;;;5.25;3.15;;;;;;;;;;5297681;26;20076;-60
2024/05/06 10:08:23;;;;;;;5.60;4.10;;;;;;;;;;5297129;26;19998;-61
2024/05/06 10:10:48;;;;;;;14.85;6.28;;;;;;;;;;5296967;27;19993;-61
2024/05/06 10:13:14;;;;;;;25.95;9.93;;;;;;;;;;5297006;26;20016;-60
2024/05/06 10:15:47;;;;;;;25.00;9.20;;;;;;;;;;5298563;26;19994;-61
2024/05/06 10:18:23;;;;;;;21.13;8.32;;;;;;;;;;5297167;26;20009;-61
2024/05/06 10:20:58;;;;;;;16.70;7.82;;;;;;;;;;5296794;26;20037;-61
2024/05/06 10:23:27;;;;;;;15.68;7.13;;;;;;;;;;5285015;26;20012;-60
2024/05/06 10:25:58;;;;;;;9.88;4.82;;;;;;;;;;5297479;26;19997;-61
2024/05/06 10:28:31;;;;;;;13.82;6.50;;;;;;;;;;5313217;26;19994;-61
2024/05/06 10:30:56;;;;;;;;;;;;;;;;;;5317016;26;20006;-61
2024/05/06 10:33:36;;;;;;;10.88;5.90;;;;;;;;;;5286549;26;20490;-61
2024/05/06 10:36:01;;;;;;;13.30;7.05;;;;;;;;;;5291805;26;20320;-61
2024/05/06 10:38:34;;;;;;;14.55;7.28;;;;;;;;;;5280454;27;20080;-61
2024/05/06 10:41:05;;;;;;;13.95;6.68;;;;;;;;;;5296017;26;20463;-61
2024/05/06 10:43:30;;;;;;;9.55;5.20;;;;;;;;;;5291976;26;20001;-61
2024/05/06 10:45:58;;;;;;;8.27;5.13;;;;;;;;;;5295188;26;20012;-61
2024/05/06 10:48:26;;;;;;;9.02;5.07;;;;;;;;;;5292668;26;20570;-61
2024/05/06 10:50:52;;;;;;;4.07;2.78;;;;;;;;;;5307224;26;20012;-61
2024/05/06 10:53:22;;;;;;;3.58;2.20;;;;;;;;;;5324955;26;20008;-61
2024/05/06 10:55:48;;;;;;;3.05;1.77;;;;;;;;;;5326290;26;20005;-60
2024/05/06 10:58:14;;;;;;;2.33;1.55;;;;;;;;;;5307816;26;20010;-61
2024/05/06 11:00:40;;;;;;;3.35;1.40;;;;;;;;;;5289321;26;20005;-61
2024/05/06 11:03:06;;;;;;;4.80;2.83;;;;;;;;;;5291442;26;20060;-60
2024/05/06 11:05:32;;;;;;;4.13;2.58;;;;;;;;;;5301880;26;20078;-61
2024/05/06 11:08:01;;;;;;;7.60;4.28;;;;;;;;;;5295774;26;20005;-60
2024/05/06 11:10:31;;;;;;;11.25;5.63;;;;;;;;;;5291827;26;20012;-61
2024/05/06 11:12:56;;;;;;;9.32;5.85;;;;;;;;;;5325812;26;19997;-60
2024/05/06 11:15:22;;;;;;;11.43;6.13;;;;;;;;;;5322980;26;20075;-61
2024/05/06 11:17:47;;;;;;;4.45;3.08;;;;;;;;;;5319716;26;19997;-61
2024/05/06 11:20:12;;;;;;;3.42;2.90;;;;;;;;;;5317764;26;19997;-61
2024/05/06 11:22:38;;;;;;;5.03;3.13;;;;;;;;;;5330778;26;20323;-60
2024/05/06 11:25:04;;;;;;;7.70;3.47;;;;;;;;;;5304885;26;20091;-61
2024/05/06 11:27:30;;;;;;;6.63;4.20;;;;;;;;;;5289786;26;20013;-60
2024/05/06 11:29:56;;;;;;;6.05;4.20;;;;;;;;;;5286730;26;20009;-61
2024/05/06 11:32:22;;;;;;;7.50;4.35;;;;;;;;;;5299232;26;20002;-61
2024/05/06 11:34:49;;;;;;;6.28;4.30;;;;;;;;;;5290836;26;20075;-60
2024/05/06 11:37:15;;;;;;;7.95;5.85;;;;;;;;;;5339339;26;19997;-61
2024/05/06 11:39:40;;;;;;;8.25;5.13;;;;;;;;;;5310487;26;20350;-60
2024/05/06 11:42:06;;;;;;;7.28;5.45;;;;;;;;;;5315795;26;19994;-61
2024/05/06 11:44:31;;;;;;;10.30;6.15;;;;;;;;;;5298369;26;19994;-61
2024/05/06 11:46:57;;;;;;;8.80;5.53;;;;;;;;;;5330408;26;20000;-61
2024/05/06 11:49:22;;;;;;;9.32;5.97;;;;;;;;;;5298494;26;20019;-61
2024/05/06 11:51:48;;;;;;;9.10;5.30;;;;;;;;;;5300148;26;19994;-61
2024/05/06 11:54:13;;;;;;;8.38;5.45;;;;;;;;;;5304861;26;20001;-61
2024/05/06 11:56:39;;;;;;;9.50;5.72;;;;;;;;;;5316543;26;20012;-61
2024/05/06 11:59:04;;;;;;;7.88;5.53;;;;;;;;;;5260132;27;20016;-61
2024/05/06 12:01:30;;;;;;;6.95;5.03;;;;;;;;;;5288291;26;19998;-61
2024/05/06 12:03:56;;;;;;;7.30;4.90;;;;;;;;;;5296008;26;20041;-62
2024/05/06 12:06:22;;;;;;;7.00;4.30;;;;;;;;;;5313785;26;20082;-61
2024/05/06 12:08:47;;;;;;;6.35;4.28;;;;;;;;;;5301562;26;19996;-61
2024/05/06 12:11:13;;;;;;;7.03;5.55;;;;;;;;;;5338338;26;20008;-62
2024/05/06 12:13:38;;;;;;;5.57;4.10;;;;;;;;;;5326171;26;20032;-61
2024/05/06 12:16:04;;;;;;;4.25;3.58;;;;;;;;;;5310858;26;20086;-61
2024/05/06 12:18:29;;;;;;;4.47;3.65;;;;;;;;;;5294608;26;20001;-62
2024/05/06 12:20:55;;;;;;;4.15;3.35;;;;;;;;;;5320724;26;20080;-61
2024/05/06 12:23:20;;;;;;;5.15;3.40;;;;;;;;;;5298971;26;20021;-61
2024/05/06 12:25:45;;;;;;;4.72;3.30;;;;;;;;;;5297919;26;20030;-61
2024/05/06 12:28:11;;;;;;;3.95;3.20;;;;;;;;;;5317021;26;20028;-61
2024/05/06 12:30:36;;;;;;;3.70;3.15;;;;;;;;;;5303154;26;20010;-61
2024/05/06 12:33:01;;;;;;;3.67;2.90;;;;;;;;;;5289397;26;20432;-61
2024/05/06 12:35:27;;;;;;;3.65;2.97;;;;;;;;;;5295099;26;20285;-61
2024/05/06 12:37:52;;;;;;;3.45;2.78;;;;;;;;;;5333054;26;20008;-61
2024/05/06 12:40:18;;;;;;;3.80;2.97;;;;;;;;;;5331888;26;20083;-61
2024/05/06 12:42:44;;;;;;;4.47;3.28;;;;;;;;;;5308037;26;20578;-61
2024/05/06 12:45:10;;;;;;;4.28;3.40;;;;;;;;;;5294132;26;20012;-62
2024/05/06 12:47:36;;;;;;;3.80;3.05;;;;;;;;;;5290863;26;20021;-61
2024/05/06 12:50:02;;;;;;;5.70;3.60;;;;;;;;;;5301743;26;20632;-61
2024/05/06 12:52:27;;;;;;;5.93;3.38;;;;;;;;;;5294853;26;20891;-62
2024/05/06 12:54:54;;;;;;;4.18;3.40;;;;;;;;;;5316672;26;20012;-61
2024/05/06 12:57:20;;;;;;;3.90;3.17;;;;;;;;;;5307134;26;19997;-61
2024/05/06 12:59:46;;;;;;;4.95;3.88;;;;;;;;;;5301418;26;20012;-61
2024/05/06 13:02:11;;;;;;;5.47;3.80;;;;;;;;;;5332625;26;20001;-61
2024/05/06 13:04:37;;;;;;;3.90;3.40;;;;;;;;;;5326741;26;19997;-61
2024/05/06 13:07:02;;;;;;;4.65;3.55;;;;;;;;;;5303296;26;19999;-61
2024/05/06 13:09:28;;;;;;;4.15;3.30;;;;;;;;;;5294401;26;20017;-61
2024/05/06 13:11:54;;;;;;;5.35;3.30;;;;;;;;;;5295877;26;20613;-61
2024/05/06 13:14:19;;;;;;;4.95;2.95;;;;;;;;;;5281097;27;20005;-61
2024/05/06 13:16:46;;;;;;;5.35;3.25;;;;;;;;;;5330875;26;20435;-61
2024/05/06 13:19:11;;;;;;;4.88;3.72;;;;;;;;;;5305316;26;20527;-61
2024/05/06 13:21:37;;;;;;;4.15;3.58;;;;;;;;;;5294478;26;20569;-61
2024/05/06 13:24:02;;;;;;;5.13;3.72;;;;;;;;;;5292676;26;19997;-62
2024/05/06 13:26:28;;;;;;;7.97;4.32;;;;;;;;;;5298854;26;20005;-61
2024/05/06 13:28:53;;;;;;;5.28;4.20;;;;;;;;;;5298492;26;21131;-61
2024/05/06 13:31:19;;;;;;;5.57;3.88;;;;;;;;;;5302732;26;20021;-61
2024/05/06 13:33:45;;;;;;;5.70;3.60;;;;;;;;;;5300725;26;20007;-61
2024/05/06 13:36:10;;;;;;;7.57;4.00;;;;;;;;;;5291854;26;19994;-62
2024/05/06 13:38:36;;;;;;;5.80;3.78;;;;;;;;;;5302461;26;20016;-61
2024/05/06 13:41:01;;;;;;;4.15;3.30;;;;;;;;;;5313981;26;20013;-61
2024/05/06 13:43:26;;;;;;;6.28;2.60;;;;;;;;;;5287639;26;20029;-61
2024/05/06 13:45:52;;;;;;;4.57;3.35;;;;;;;;;;5290779;26;20042;-62
2024/05/06 13:48:17;;;;;;;5.90;3.25;;;;;;;;;;5304574;26;20001;-62
2024/05/06 13:50:43;;;;;;;3.85;2.60;;;;;;;;;;5329320;26;19997;-61
2024/05/06 13:53:09;;;;;;;3.00;2.17;;;;;;;;;;5330563;26;20012;-61
2024/05/06 13:55:35;;;;;;;5.15;2.17;;;;;;;;;;5330325;26;19997;-61
2024/05/06 13:58:01;;;;;;;4.70;2.78;;;;;;;;;;5328467;26;20488;-61
2024/05/06 14:00:26;;;;;;;3.60;2.70;;;;;;;;;;5330484;26;20040;-61
2024/05/06 14:02:51;;;;;;;5.95;3.00;;;;;;;;;;5330455;26;20317;-61
2024/05/06 14:05:19;;;;;;;3.72;3.05;;;;;;;;;;5330794;26;20008;-61
2024/05/06 14:07:44;;;;;;;6.53;2.60;;;;;;;;;;5332216;26;20454;-61
2024/05/06 14:10:10;;;;;;;2.92;2.63;;;;;;;;;;5329257;26;20012;-61
2024/05/06 14:12:35;;;;;;;6.82;2.00;;;;;;;;;;5331272;26;20013;-61
2024/05/06 14:15:00;;;;;;;4.47;2.22;;;;;;;;;;5331435;26;20442;-61
2024/05/06 14:17:26;;;;;;;3.08;2.50;;;;;;;;;;5329948;26;20374;-61
2024/05/06 14:19:51;;;;;;;5.05;2.58;;;;;;;;;;5315101;26;20040;-61
2024/05/06 14:22:16;;;;;;;3.20;2.50;;;;;;;;;;5329965;26;20009;-61
2024/05/06 14:24:42;;;;;;;4.45;3.03;;;;;;;;;;5328558;26;20844;-61
2024/05/06 14:27:07;;;;;;;3.47;2.60;;;;;;;;;;5328740;26;20008;-61
2024/05/06 14:29:32;;;;;;;3.90;2.60;;;;;;;;;;5330350;26;20001;-61
2024/05/06 14:31:59;;;;;;;6.03;2.65;;;;;;;;;;5329999;26;19997;-61
2024/05/06 14:34:24;;;;;;;5.25;3.10;;;;;;;;;;5328138;26;20008;-61
2024/05/06 14:36:50;;;;;;;3.97;2.72;;;;;;;;;;5328669;26;19993;-61